Main page
METAR-TAF:

METAR-TAF

Airports :

Yuma International Airport

Yuma, Arizona, United States

latitude: 32-37-25N, longitude: 113-45-50W, elevation: 64 m

Current weather observation

The report was made 41 minutes ago, at 03:57 UTC
Wind 6 kt from the South
Temperature 19°C
Humidity 49%
Pressure 1017 hPa
Visibility: 11.3 km
Clear sky

METAR: KNYL 010357Z 17006KT 7SM CLR 19/08 A3002 RMK AO2 SLP164 T01890078 $

Time: 21:38 (04:38 UTC)

Forecast

Forecast valid from 01 at 03 UTC to 02 at 03 UTC
Wind 5 kt from variable directions
Visibility 10 km or more
Clear sky
From 01 at 1500 UTC
Wind 5 kt from variable directions
Visibility 10 km or more
Clear sky
From 01 at 2030 UTC
Wind 6 kt from the Southwest
Visibility: 0114 m
Few clouds at a height of 7000 ft

TAF: KNYL 0103/0203 VRB05KT 9999 SKC QNH3000INS FM011500 VRB05KT 9999 SKC QNH3000INS FM012030 23006KT 9999 FEW070 QNH2993INS AUTOMATED SENSOR METWATCH 0106 TIL 0114 T12/0114Z T26/0123Z

Weather observations and forecasts of more than 4000 airports (METAR and TAF reports).

The available stations are represented by yellow and red dots on the map.

Hover mouse over dot to see the name of the station.

Then click to see weather observations and forecasts.

To change the map : click on the green buttons with a black cross to zoom in, on the green button with a dash to zoom out, or on the green arrows for adjacent maps.


METAR-TAF: